Alexandra, Australia
Current Conditions -  °F | °C
As of 10:00 AM on Saturday 25 Oct 2014 (Local Time) from YMEN Reporting Station
Overcast Overcast  
Wind Chill: 61°   Ceiling: 1900
Heat Index: 61°   Visibility: 6mi
Dew Point: 52°   Wind: 8mph
Humidity: 72%   Direction: 180°S
Pressure: 30.03"   Gusts: NA
Location:  37.2°S, 145.71°E
Report Text: YMEN 242300Z AUTO 18007KT 9999 // OVC019 16/11 Q1017
Loading
Personal Weather Stations






























Interactive Weather Map
Tropical Storm Tracking
New forecast layout! Learn more

10-Day Weather Forecast

Advertisements
Track Severe Weather on mobile